Hub


Voltar

 INFORMAÇÕES METEOROLÓGICAS

METAR FOR HECA


ADDS - METARS form results

(1253 UTC 26 April 2019)
Data provider http://aviationweather.gov/metar/data/
 
METAR text: HECA 261230Z 01014KT CAVOK 31/07 Q1014 NOSIG
Conditions at: HECA (CAIRO INTL AIRPO, EG) observed 1230 UTC 26 April 2019
Temperature: 31.0°C (88°F)
Dewpoint: 7.0°C (45°F) [RH = 22%]
Pressure (altimeter): 29.94 inches Hg (1014.0 mb)
Winds: from the N (10 degrees) at 16 MPH (14 knots; 7.2 m/s)
Visibility: 6 or more miles (10+ km)
Ceiling: ceiling and visibility are OK
Clouds: unknown
Weather: no significant weather observed at this time

METAR text: HECA 261200Z 35013KT CAVOK 31/07 Q1015 NOSIG
Conditions at: HECA (CAIRO INTL AIRPO, EG) observed 1200 UTC 26 April 2019
Temperature: 31.0°C (88°F)
Dewpoint: 7.0°C (45°F) [RH = 22%]
Pressure (altimeter): 29.97 inches Hg (1015.0 mb)
Winds: from the N (350 degrees) at 15 MPH (13 knots; 6.7 m/s)
Visibility: 6 or more miles (10+ km)
Ceiling: ceiling and visibility are OK
Clouds: unknown
Weather: no significant weather observed at this time

Forecast for: HECA (CAIRO INTL AIRPO, EG)
Text: TAF HECA 261100Z 2612/2718 03010KT CAVOK
Forecast period: 1200 UTC 26 April 2019 to 1800 UTC 27 April 2019
Forecast type: FROM: standard forecast or significant change
Winds: from the NNE (30 degrees) at 12 MPH (10 knots; 5.1 m/s)
Visibility: 6 or more miles 10+ km)
Ceiling: unknown
Clouds: missing
Weather: NSW  (no significant weather)


 MAPA DO AEROPORTO


 INFORMAÇÕES DA PISTA

Pista 05C Tamanho da pista 13120 ft Largura da pista 197 ft
Elevação da pista 382 ft Ranhura da pista 0 ft Proa da pista 45
Pista 23C Tamanho da pista 13120 ft Largura da pista 197 ft
Elevação da pista 0 ft Ranhura da pista 0 ft Proa da pista 225
Pista 05L Tamanho da pista 10830 ft Largura da pista 197 ft
Elevação da pista 190 ft Ranhura da pista 0 ft Proa da pista 49
Pista 23R Tamanho da pista 10830 ft Largura da pista 197 ft
Elevação da pista 199 ft Ranhura da pista 0 ft Proa da pista 229
Pista 05R Tamanho da pista 13124 ft Largura da pista 197 ft
Elevação da pista 382 ft Ranhura da pista 0 ft Proa da pista 49
Pista 23L Tamanho da pista 13124 ft Largura da pista 197 ft
Elevação da pista 375 ft Ranhura da pista 0 ft Proa da pista 229

 FREQUÊNCIAS DO AEROPORTO

Tipo APP Nome APP Frequência 119.05 MHZ
Tipo ATIS Nome ATIS Frequência 122.6 MHZ
Tipo GND Nome GND Frequência 121.9 MHZ
Tipo MISC Nome VOLMET Frequência 126.2 MHZ
Tipo PFLT Nome PREFLIGHT Frequência 120.1 MHZ
Tipo rdo Nome cairo radi Frequência 11.3 MHZ
Tipo TWR Nome TWR Frequência 118.1 MHZ
Tipo Volmet Nome Frequência 124.6 MHZ

 AUXÍLIOS DE NAVEGAÇÃO PRÓXIMOS AO AEROPORTO

Tipo NDB Nome Cairo Frequência 310 KHZ
Tipo VOR-DME Nome Cairo Frequência 112500 KHZ
Tipo VOR-DME Nome Cairo Frequência 115200 KHZ
Tipo NDB Nome Cairo Frequência 317 KHZ